createdAt,value
2017-09-19T00:01:17.564Z,12.76
2017-09-19T00:03:44.878Z,12.68
2017-09-19T00:06:11.114Z,12.88
2017-09-19T00:08:37.357Z,12.83
2017-09-19T00:11:04.331Z,12.80
2017-09-19T00:13:30.562Z,12.79
2017-09-19T00:15:56.825Z,12.39
2017-09-19T00:18:23.052Z,12.70
2017-09-19T00:20:49.285Z,12.72
2017-09-19T00:23:15.553Z,12.41
2017-09-19T00:25:42.556Z,12.77
2017-09-19T00:28:08.829Z,12.49
2017-09-19T00:30:35.808Z,12.54
2017-09-19T00:33:02.059Z,12.65
2017-09-19T00:35:28.309Z,12.95
2017-09-19T00:37:54.583Z,12.87
2017-09-19T00:40:20.816Z,12.58
2017-09-19T00:42:47.050Z,11.93
2017-09-19T00:45:13.505Z,11.49
2017-09-19T00:47:39.741Z,11.48
2017-09-19T00:50:05.980Z,12.34
2017-09-19T00:52:32.271Z,12.19
2017-09-19T00:54:58.514Z,12.64
2017-09-19T00:57:24.788Z,12.95
2017-09-19T00:59:51.805Z,13.10
2017-09-19T01:02:18.064Z,12.87
2017-09-19T01:04:45.042Z,12.62
2017-09-19T01:07:11.336Z,12.56
2017-09-19T01:09:38.325Z,12.69
2017-09-19T01:12:04.653Z,12.64
2017-09-19T01:14:30.925Z,12.94
2017-09-19T01:16:57.154Z,12.42
2017-09-19T01:19:23.409Z,12.05
2017-09-19T01:21:49.685Z,12.27
2017-09-19T01:24:15.940Z,12.58
2017-09-19T01:26:42.181Z,12.50
2017-09-19T01:29:09.396Z,12.44
2017-09-19T01:31:35.649Z,12.71
2017-09-19T01:34:01.897Z,12.59
2017-09-19T01:36:29.041Z,12.21
2017-09-19T01:38:55.997Z,12.04
2017-09-19T01:41:22.225Z,11.88
2017-09-19T01:43:48.500Z,11.56
2017-09-19T01:46:14.717Z,11.66
2017-09-19T01:48:40.935Z,11.71
2017-09-19T01:51:07.168Z,11.91
2017-09-19T01:53:33.412Z,11.76
2017-09-19T01:55:59.642Z,11.75
2017-09-19T01:58:25.881Z,11.77
2017-09-19T02:00:52.106Z,11.73
2017-09-19T02:03:18.329Z,11.57
2017-09-19T02:05:44.580Z,11.74
2017-09-19T02:08:10.833Z,11.70
2017-09-19T02:10:37.794Z,11.60
2017-09-19T02:13:04.068Z,11.46
2017-09-19T02:15:30.288Z,11.37
2017-09-19T02:17:56.512Z,11.37
2017-09-19T02:20:22.764Z,11.35
2017-09-19T02:22:49.732Z,11.44
2017-09-19T02:25:16.693Z,11.46
2017-09-19T02:27:42.924Z,11.43
2017-09-19T02:30:09.150Z,11.61
2017-09-19T02:32:35.381Z,11.82
2017-09-19T02:35:01.668Z,11.81
2017-09-19T02:37:27.912Z,11.88
2017-09-19T02:39:54.881Z,11.72
2017-09-19T02:42:21.134Z,11.61
2017-09-19T02:44:47.366Z,11.56
2017-09-19T02:47:13.589Z,11.66
2017-09-19T02:49:39.993Z,11.67
2017-09-19T02:52:06.212Z,11.89
2017-09-19T02:54:33.592Z,12.10
2017-09-19T02:56:59.856Z,12.00
2017-09-19T02:59:26.095Z,11.81
2017-09-19T03:01:52.322Z,11.80
2017-09-19T03:04:18.569Z,11.98
2017-09-19T03:06:45.549Z,11.80
2017-09-19T03:09:11.787Z,11.61
2017-09-19T03:11:38.032Z,11.83
2017-09-19T03:14:04.277Z,11.72
2017-09-19T03:16:30.504Z,11.63
2017-09-19T03:18:56.739Z,11.34
2017-09-19T03:21:22.987Z,11.23
2017-09-19T03:23:49.944Z,11.25
2017-09-19T03:26:16.286Z,11.61
2017-09-19T03:28:42.514Z,11.52
2017-09-19T03:31:08.751Z,11.31
2017-09-19T03:33:34.979Z,11.38
2017-09-19T03:36:01.237Z,11.91
2017-09-19T03:38:27.501Z,11.93
2017-09-19T03:40:54.464Z,11.69
2017-09-19T03:43:20.702Z,11.89
2017-09-19T03:45:46.984Z,11.88
2017-09-19T03:48:13.219Z,11.79
2017-09-19T03:50:39.444Z,11.54
2017-09-19T03:53:06.057Z,11.54
2017-09-19T03:55:32.290Z,11.50
2017-09-19T03:57:58.532Z,11.54
2017-09-19T04:00:24.820Z,11.48
2017-09-19T04:02:51.299Z,11.48
2017-09-19T04:05:17.528Z,11.66
2017-09-19T04:07:44.137Z,11.76
2017-09-19T04:10:10.398Z,11.64
2017-09-19T04:12:36.629Z,11.41
2017-09-19T04:15:02.917Z,11.66
2017-09-19T04:17:29.164Z,11.58
2017-09-19T04:19:55.389Z,11.40
2017-09-19T04:22:21.904Z,11.40
2017-09-19T04:24:48.129Z,11.40
2017-09-19T04:27:14.379Z,11.37
2017-09-19T04:29:40.654Z,11.87
2017-09-19T04:32:07.652Z,11.92
2017-09-19T04:34:33.894Z,12.11
2017-09-19T04:37:00.161Z,12.00
2017-09-19T04:39:26.400Z,11.90
2017-09-19T04:41:52.655Z,12.17
2017-09-19T04:44:19.112Z,11.99
2017-09-19T04:46:45.343Z,11.99
2017-09-19T04:49:11.568Z,11.66
2017-09-19T04:51:37.874Z,11.52
2017-09-19T04:54:04.085Z,11.41
2017-09-19T04:56:30.319Z,11.36
2017-09-19T04:58:56.569Z,11.34
2017-09-19T05:01:22.793Z,11.58
2017-09-19T05:03:49.026Z,11.75
2017-09-19T05:06:15.264Z,11.73
2017-09-19T05:08:41.485Z,11.66
2017-09-19T05:11:07.825Z,11.31
2017-09-19T05:13:34.072Z,11.26
2017-09-19T05:16:01.048Z,11.44
2017-09-19T05:18:27.343Z,11.49
2017-09-19T05:20:53.577Z,11.50
2017-09-19T05:23:20.549Z,11.39
2017-09-19T05:25:46.814Z,11.30
2017-09-19T05:28:13.046Z,11.33
2017-09-19T05:30:39.281Z,11.26
2017-09-19T05:33:05.552Z,11.26
2017-09-19T05:35:32.565Z,11.27
2017-09-19T05:37:58.813Z,11.30
2017-09-19T05:40:25.832Z,11.28
2017-09-19T05:42:52.166Z,11.83
2017-09-19T05:45:18.416Z,11.76
2017-09-19T05:47:45.395Z,12.05
2017-09-19T05:50:11.652Z,12.14
2017-09-19T05:52:37.893Z,12.05
2017-09-19T05:55:04.124Z,12.08
2017-09-19T05:57:30.398Z,11.84
2017-09-19T05:59:56.659Z,12.18
2017-09-19T06:02:22.901Z,12.34
2017-09-19T06:04:50.053Z,12.14
2017-09-19T06:07:16.277Z,11.92
2017-09-19T06:09:42.516Z,11.73
2017-09-19T06:12:08.770Z,11.65
2017-09-19T06:14:35.733Z,11.66
2017-09-19T06:17:01.999Z,11.68
2017-09-19T06:19:28.412Z,11.65
2017-09-19T06:21:54.646Z,11.60
2017-09-19T06:24:20.903Z,11.61
2017-09-19T06:26:47.177Z,11.65
2017-09-19T06:29:13.425Z,11.59
2017-09-19T06:31:39.678Z,11.54
2017-09-19T06:34:06.673Z,11.49
2017-09-19T06:36:33.645Z,11.65
2017-09-19T06:39:00.490Z,11.70
2017-09-19T06:41:26.811Z,11.72
2017-09-19T06:43:53.049Z,11.74
2017-09-19T06:46:19.282Z,11.94
2017-09-19T06:48:46.525Z,11.94
2017-09-19T06:51:12.956Z,11.87
2017-09-19T06:53:39.201Z,11.99
2017-09-19T06:56:05.597Z,11.94
2017-09-19T06:58:32.221Z,11.96
2017-09-19T07:00:59.563Z,12.10
2017-09-19T07:03:26.069Z,12.12
2017-09-19T07:05:52.540Z,12.15
2017-09-19T07:08:18.810Z,12.10
2017-09-19T07:10:45.201Z,12.03
2017-09-19T07:13:12.296Z,12.09
2017-09-19T07:15:38.544Z,12.17
2017-09-19T07:18:04.829Z,12.22
2017-09-19T07:20:31.074Z,12.21
2017-09-19T07:22:57.672Z,12.29
2017-09-19T07:25:25.006Z,12.29
2017-09-19T07:27:51.295Z,12.29
2017-09-19T07:30:17.621Z,12.34
2017-09-19T07:32:44.069Z,12.27
2017-09-19T07:35:10.298Z,12.28
2017-09-19T07:37:36.536Z,12.45
2017-09-19T07:40:02.793Z,12.46
2017-09-19T07:42:29.020Z,12.64
2017-09-19T07:44:55.254Z,12.67
2017-09-19T07:47:22.256Z,12.78
2017-09-19T07:49:48.693Z,12.82
2017-09-19T07:52:15.225Z,12.79
2017-09-19T07:54:41.449Z,12.85
2017-09-19T07:57:07.689Z,12.96
2017-09-19T07:59:34.333Z,13.05
2017-09-19T08:02:00.889Z,13.28
2017-09-19T08:04:27.124Z,13.47
2017-09-19T08:06:54.278Z,13.28
2017-09-19T08:09:21.355Z,13.60
2017-09-19T08:11:48.079Z,13.51
2017-09-19T08:14:15.299Z,13.79
2017-09-19T08:16:42.096Z,13.85
2017-09-19T08:19:08.334Z,13.79
2017-09-19T08:21:34.557Z,13.71
2017-09-19T08:24:00.779Z,13.63
2017-09-19T08:26:27.048Z,13.66
2017-09-19T08:28:53.260Z,13.75
2017-09-19T08:31:19.509Z,13.77
2017-09-19T08:33:45.782Z,13.82
2017-09-19T08:36:12.008Z,13.92
2017-09-19T08:38:38.246Z,13.93
2017-09-19T08:41:04.710Z,13.99
2017-09-19T08:43:30.937Z,14.13
2017-09-19T08:45:57.159Z,14.31
2017-09-19T08:48:23.402Z,14.52
2017-09-19T08:50:49.636Z,14.26
2017-09-19T08:53:15.878Z,14.83
2017-09-19T08:55:42.149Z,14.47
2017-09-19T08:58:08.382Z,14.40
2017-09-19T09:00:34.617Z,14.50
2017-09-19T09:03:00.876Z,14.41
2017-09-19T09:05:27.836Z,14.38
2017-09-19T09:07:54.095Z,14.34
2017-09-19T09:10:20.337Z,14.53
2017-09-19T09:12:46.544Z,14.46
2017-09-19T09:15:13.515Z,14.46
2017-09-19T09:17:39.781Z,14.53
2017-09-19T09:20:06.001Z,14.71
2017-09-19T09:22:32.953Z,14.49
2017-09-19T09:24:59.191Z,14.45
2017-09-19T09:27:25.402Z,14.81
2017-09-19T09:29:51.645Z,14.87
2017-09-19T09:32:17.900Z,14.95
2017-09-19T09:34:44.871Z,15.00
2017-09-19T09:37:11.077Z,14.95
2017-09-19T09:39:38.054Z,15.24
2017-09-19T09:42:04.303Z,14.99
2017-09-19T09:44:30.541Z,15.21
2017-09-19T09:46:56.770Z,15.36
2017-09-19T09:49:23.013Z,15.49
2017-09-19T09:51:49.312Z,15.56
2017-09-19T09:54:15.560Z,15.67
2017-09-19T09:56:41.792Z,15.51
2017-09-19T09:59:08.063Z,15.63
2017-09-19T10:01:34.293Z,16.07
2017-09-19T10:04:00.523Z,16.31
2017-09-19T10:06:27.102Z,16.29
2017-09-19T10:08:53.344Z,16.07
2017-09-19T10:11:19.594Z,15.99
2017-09-19T10:13:46.583Z,16.12
2017-09-19T10:16:12.805Z,16.07
2017-09-19T10:18:39.012Z,16.06
2017-09-19T10:21:05.265Z,16.08
2017-09-19T10:23:31.476Z,15.73
2017-09-19T10:25:57.700Z,16.05
2017-09-19T10:28:23.970Z,16.25
2017-09-19T10:30:50.197Z,16.36
2017-09-19T10:33:16.436Z,16.06
2017-09-19T10:35:42.661Z,15.94
2017-09-19T10:38:08.892Z,16.13
2017-09-19T10:40:35.155Z,16.18
2017-09-19T10:43:01.409Z,16.08
2017-09-19T10:45:27.658Z,16.20
2017-09-19T10:47:54.005Z,16.18
2017-09-19T10:50:20.245Z,16.18
2017-09-19T10:52:47.361Z,16.66
2017-09-19T10:55:14.001Z,16.56
2017-09-19T10:57:40.233Z,16.29
2017-09-19T11:00:06.539Z,16.31
2017-09-19T11:02:32.881Z,16.52
2017-09-19T11:04:59.150Z,16.70
2017-09-19T11:07:25.433Z,16.83
2017-09-19T11:09:51.726Z,16.83
2017-09-19T11:12:18.708Z,16.84
2017-09-19T11:14:45.217Z,16.93
2017-09-19T11:17:11.759Z,16.62
2017-09-19T11:19:38.085Z,16.84
2017-09-19T11:22:04.616Z,16.86
2017-09-19T11:24:31.423Z,17.01
2017-09-19T11:26:59.954Z,17.10
2017-09-19T11:29:26.317Z,16.83
2017-09-19T11:31:52.716Z,16.95
2017-09-19T11:34:19.000Z,16.90
2017-09-19T11:36:45.268Z,17.03
2017-09-19T11:39:11.480Z,17.18
2017-09-19T11:41:38.677Z,17.05
2017-09-19T11:44:04.895Z,16.96
2017-09-19T11:46:31.124Z,17.13
2017-09-19T11:48:57.375Z,17.16
2017-09-19T11:51:23.602Z,17.21
2017-09-19T11:53:49.821Z,16.93
2017-09-19T11:56:16.246Z,17.21
2017-09-19T11:58:42.481Z,17.36
2017-09-19T12:01:08.710Z,17.26
2017-09-19T12:03:34.991Z,17.36
2017-09-19T12:06:01.963Z,17.42
2017-09-19T12:08:28.183Z,17.80
2017-09-19T12:10:54.509Z,18.41
2017-09-19T12:13:20.735Z,18.60
2017-09-19T12:15:46.945Z,18.78
2017-09-19T12:18:13.949Z,19.09
2017-09-19T12:20:40.936Z,18.93
2017-09-19T12:23:07.901Z,18.44
2017-09-19T12:25:34.632Z,18.84
2017-09-19T12:28:00.869Z,18.33
2017-09-19T12:30:27.217Z,17.90
2017-09-19T12:32:53.490Z,18.50
2017-09-19T12:35:20.021Z,19.01
2017-09-19T12:37:46.298Z,18.93
2017-09-19T12:40:12.570Z,19.11
2017-09-19T12:42:38.796Z,19.07
2017-09-19T12:45:05.113Z,19.53
2017-09-19T12:47:31.538Z,19.91
2017-09-19T12:50:01.162Z,19.60
2017-09-19T12:52:27.503Z,19.50
2017-09-19T12:54:53.754Z,18.83
2017-09-19T12:57:20.920Z,18.46
2017-09-19T12:59:47.637Z,18.49
2017-09-19T13:02:14.789Z,18.44
2017-09-19T13:04:41.760Z,18.85
2017-09-19T13:07:08.958Z,18.71
2017-09-19T13:09:35.202Z,19.04
2017-09-19T13:12:02.011Z,19.86
2017-09-19T13:14:28.683Z,19.93
2017-09-19T13:16:54.985Z,19.82
2017-09-19T13:19:21.218Z,19.58
2017-09-19T13:21:47.466Z,18.80
2017-09-19T13:24:13.781Z,18.80
2017-09-19T13:26:40.046Z,18.65
2017-09-19T13:29:07.028Z,18.77
2017-09-19T13:34:39.428Z,18.51
2017-09-19T13:37:05.691Z,18.23
2017-09-19T13:39:31.955Z,18.61
2017-09-19T13:41:58.223Z,18.47
2017-09-19T13:44:24.939Z,18.58
2017-09-19T13:46:51.192Z,18.97
2017-09-19T13:49:17.425Z,19.88
2017-09-19T13:51:43.732Z,19.79
2017-09-19T13:54:10.022Z,19.68
2017-09-19T13:56:37.002Z,19.31
2017-09-19T13:59:03.258Z,19.41
2017-09-19T14:01:29.498Z,19.51
2017-09-19T14:03:55.746Z,19.77
2017-09-19T14:06:23.101Z,19.50
2017-09-19T14:08:50.802Z,19.13
2017-09-19T14:11:17.065Z,18.79
2017-09-19T14:13:43.327Z,18.87
2017-09-19T14:16:10.309Z,18.68
2017-09-19T14:18:36.997Z,18.69
2017-09-19T14:21:04.051Z,18.54
2017-09-19T14:23:31.272Z,18.50
2017-09-19T14:25:58.317Z,18.44
2017-09-19T14:28:24.760Z,18.26
2017-09-19T14:30:51.010Z,18.04
2017-09-19T14:33:18.003Z,17.84
2017-09-19T14:35:44.262Z,17.91
2017-09-19T14:38:10.490Z,18.00
2017-09-19T14:40:36.717Z,17.90
2017-09-19T14:43:02.982Z,17.85
2017-09-19T14:45:30.904Z,17.73
2017-09-19T14:47:57.240Z,17.73
2017-09-19T14:50:23.668Z,17.65
2017-09-19T14:52:50.194Z,17.52
2017-09-19T14:55:17.123Z,17.41
2017-09-19T14:57:43.372Z,17.43
2017-09-19T15:00:09.634Z,17.32
2017-09-19T15:02:36.610Z,17.31
2017-09-19T15:05:02.886Z,17.40
2017-09-19T15:07:29.208Z,17.10
2017-09-19T15:09:55.580Z,17.31
2017-09-19T15:12:23.049Z,17.42
2017-09-19T15:14:49.357Z,17.41
2017-09-19T15:17:15.581Z,17.40
2017-09-19T15:19:41.807Z,17.36
2017-09-19T15:22:08.150Z,17.20
2017-09-19T15:24:35.505Z,17.25
2017-09-19T15:27:02.476Z,17.22
2017-09-19T15:29:28.949Z,17.18
2017-09-19T15:31:55.442Z,17.24
2017-09-19T15:34:21.717Z,17.36
2017-09-19T15:36:47.969Z,17.31
2017-09-19T15:39:14.205Z,17.32
2017-09-19T15:41:41.335Z,17.24
2017-09-19T15:44:07.759Z,17.34
2017-09-19T15:46:34.762Z,17.39
2017-09-19T15:49:01.014Z,17.32
2017-09-19T15:51:27.254Z,17.32
2017-09-19T15:53:53.948Z,17.22
2017-09-19T15:56:20.246Z,17.10
2017-09-19T15:58:47.613Z,17.01
2017-09-19T16:01:14.598Z,16.80
2017-09-19T16:03:41.641Z,16.74
2017-09-19T16:06:08.406Z,16.70
2017-09-19T16:08:34.645Z,16.64
2017-09-19T16:11:00.874Z,16.67
2017-09-19T16:13:27.112Z,16.57
2017-09-19T16:15:53.934Z,16.86
2017-09-19T16:18:20.245Z,16.54
2017-09-19T16:20:46.490Z,16.58
2017-09-19T16:23:12.796Z,16.53
2017-09-19T16:25:39.193Z,16.27
2017-09-19T16:28:06.157Z,16.29
2017-09-19T16:30:32.405Z,16.54
2017-09-19T16:32:58.630Z,16.38
2017-09-19T16:35:25.242Z,16.42
2017-09-19T16:37:52.495Z,16.21
2017-09-19T16:40:19.468Z,16.26
2017-09-19T16:42:46.009Z,16.30
2017-09-19T16:45:12.843Z,16.21
2017-09-19T16:47:39.069Z,16.50
2017-09-19T16:50:05.442Z,16.23
2017-09-19T16:52:31.961Z,16.09
2017-09-19T16:54:58.649Z,15.88
2017-09-19T16:57:25.622Z,15.75
2017-09-19T16:59:51.895Z,15.59
2017-09-19T17:02:18.338Z,15.55
2017-09-19T17:04:45.399Z,15.43
2017-09-19T17:07:12.446Z,15.42
2017-09-19T17:09:39.425Z,15.31
2017-09-19T17:12:05.920Z,15.39
2017-09-19T17:14:32.221Z,15.40
2017-09-19T17:16:58.653Z,15.28
2017-09-19T17:19:25.056Z,15.25
2017-09-19T17:21:52.133Z,15.20
2017-09-19T17:24:18.714Z,15.27
2017-09-19T17:26:45.124Z,15.20
2017-09-19T17:29:12.212Z,15.18
2017-09-19T17:31:38.677Z,15.08
2017-09-19T17:34:05.276Z,15.01
2017-09-19T17:36:31.525Z,14.94
2017-09-19T17:38:57.836Z,15.01
2017-09-19T17:41:24.378Z,14.95
2017-09-19T17:43:50.915Z,14.95
2017-09-19T17:46:17.177Z,14.93
2017-09-19T17:48:43.862Z,14.84
2017-09-19T17:51:10.208Z,14.83
2017-09-19T17:53:36.575Z,14.84
2017-09-19T17:56:02.831Z,14.81
2017-09-19T17:58:29.886Z,14.80
2017-09-19T18:00:57.439Z,14.79
2017-09-19T18:03:24.496Z,14.76
2017-09-19T18:05:50.818Z,14.78
2017-09-19T18:08:18.056Z,14.66
2017-09-19T18:10:45.334Z,14.39
2017-09-19T18:13:12.424Z,13.86
2017-09-19T18:15:38.847Z,13.53
2017-09-19T18:18:05.390Z,13.39
2017-09-19T18:20:31.779Z,13.19
2017-09-19T18:22:58.152Z,13.23
2017-09-19T18:25:24.515Z,13.13
2017-09-19T18:27:50.850Z,13.01
2017-09-19T18:30:17.964Z,13.09
2017-09-19T18:32:44.337Z,13.10
2017-09-19T18:35:11.483Z,13.16
2017-09-19T18:37:38.794Z,13.44
2017-09-19T18:40:05.488Z,13.20
2017-09-19T18:42:32.596Z,13.30
2017-09-19T18:44:59.965Z,13.40
2017-09-19T18:47:26.406Z,13.30
2017-09-19T18:49:53.570Z,12.98
2017-09-19T18:52:19.949Z,13.07
2017-09-19T18:54:46.495Z,13.01
2017-09-19T18:57:12.881Z,12.86
2017-09-19T18:59:39.509Z,12.75
2017-09-19T19:02:05.871Z,12.73
2017-09-19T19:04:32.215Z,12.73
2017-09-19T19:06:58.955Z,12.72
2017-09-19T19:09:25.325Z,12.70
2017-09-19T19:11:52.435Z,12.70
2017-09-19T19:14:19.272Z,12.69
2017-09-19T19:16:45.607Z,12.68
2017-09-19T19:19:11.955Z,12.63
2017-09-19T19:21:38.537Z,12.64
2017-09-19T19:24:04.878Z,12.65
2017-09-19T19:26:31.155Z,12.69
2017-09-19T19:28:57.541Z,12.74
2017-09-19T19:31:24.363Z,12.74
2017-09-19T19:33:50.724Z,12.78
2017-09-19T19:36:17.122Z,12.81
2017-09-19T19:38:43.697Z,12.77
2017-09-19T19:41:10.016Z,12.81
2017-09-19T19:43:36.288Z,12.76
2017-09-19T19:46:02.649Z,12.73
2017-09-19T19:48:30.081Z,12.84
2017-09-19T19:50:57.389Z,12.85
2017-09-19T19:53:24.611Z,12.82
2017-09-19T19:55:51.132Z,12.82
2017-09-19T19:58:20.078Z,12.82
2017-09-19T20:00:49.513Z,12.83
2017-09-19T20:03:19.248Z,12.81
2017-09-19T20:05:46.017Z,12.79
2017-09-19T20:08:12.314Z,12.76
2017-09-19T20:10:39.431Z,12.72
2017-09-19T20:13:05.784Z,12.77
2017-09-19T20:15:32.918Z,12.77
2017-09-19T20:17:59.310Z,12.69
2017-09-19T20:20:25.723Z,12.66
2017-09-19T20:22:52.350Z,12.72
2017-09-19T20:25:19.043Z,12.65
2017-09-19T20:27:45.347Z,12.74
2017-09-19T20:30:12.006Z,12.66
2017-09-19T20:32:38.407Z,12.65
2017-09-19T20:35:04.823Z,12.68
2017-09-19T20:37:32.456Z,12.65
2017-09-19T20:39:58.973Z,12.68
2017-09-19T20:42:25.296Z,12.71
2017-09-19T20:44:52.252Z,12.68
2017-09-19T20:47:18.628Z,12.71
2017-09-19T20:49:44.909Z,12.71
2017-09-19T20:52:11.363Z,12.76
2017-09-19T20:54:37.909Z,12.76
2017-09-19T20:57:05.459Z,12.80
2017-09-19T20:59:31.969Z,12.77
2017-09-19T21:01:58.943Z,12.85
2017-09-19T21:04:31.285Z,12.85
2017-09-19T21:07:03.798Z,12.87
2017-09-19T21:09:38.749Z,12.82
2017-09-19T21:12:16.550Z,12.87
2017-09-19T21:14:49.994Z,12.91
2017-09-19T21:17:22.988Z,12.87
2017-09-19T21:19:49.823Z,12.87
2017-09-19T21:22:16.130Z,12.88
2017-09-19T21:24:42.557Z,12.87
2017-09-19T21:27:09.048Z,12.88
2017-09-19T21:29:36.083Z,12.89
2017-09-19T21:32:02.492Z,12.91
2017-09-19T21:34:29.962Z,12.93
2017-09-19T21:36:56.631Z,12.95
2017-09-19T21:39:23.847Z,12.90
2017-09-19T21:41:50.889Z,12.91
2017-09-19T21:44:17.121Z,12.92
2017-09-19T21:46:43.745Z,12.91
2017-09-19T21:49:10.476Z,12.79
2017-09-19T21:51:37.502Z,12.85
2017-09-19T21:54:03.753Z,12.89
2017-09-19T21:56:30.043Z,12.91
2017-09-19T21:58:57.053Z,12.89
2017-09-19T22:01:24.887Z,12.84
2017-09-19T22:03:51.193Z,12.86
2017-09-19T22:06:18.800Z,12.90
2017-09-19T22:08:45.033Z,12.81
2017-09-19T22:11:11.650Z,12.82
2017-09-19T22:13:37.888Z,12.84
2017-09-19T22:16:04.328Z,12.77
2017-09-19T22:18:30.606Z,12.80
2017-09-19T22:20:57.578Z,12.76
2017-09-19T22:23:25.237Z,12.73
2017-09-19T22:25:51.545Z,12.76
2017-09-19T22:28:18.517Z,12.73
2017-09-19T22:30:44.741Z,12.73
2017-09-19T22:33:11.011Z,12.75
2017-09-19T22:35:37.244Z,12.77
2017-09-19T22:38:03.482Z,12.72
2017-09-19T22:40:29.746Z,12.75
2017-09-19T22:42:55.975Z,12.77
2017-09-19T22:45:23.159Z,12.80
2017-09-19T22:47:49.620Z,12.76
2017-09-19T22:50:16.428Z,12.75
2017-09-19T22:52:42.653Z,12.75
2017-09-19T22:55:08.881Z,12.77
2017-09-19T22:57:35.117Z,12.76
2017-09-19T23:00:01.661Z,12.75
2017-09-19T23:02:28.638Z,12.75
2017-09-19T23:04:55.608Z,12.74
2017-09-19T23:07:22.083Z,12.71
2017-09-19T23:09:48.322Z,12.66
2017-09-19T23:12:14.557Z,12.73
2017-09-19T23:14:40.900Z,12.71
2017-09-19T23:17:07.902Z,12.70
2017-09-19T23:19:34.127Z,12.73
2017-09-19T23:22:00.409Z,12.74
2017-09-19T23:24:27.376Z,12.78
2017-09-19T23:26:53.610Z,12.75
2017-09-19T23:29:19.869Z,12.72
2017-09-19T23:31:46.112Z,12.73
2017-09-19T23:34:12.350Z,12.74
2017-09-19T23:36:38.969Z,12.76
2017-09-19T23:39:05.221Z,12.73
2017-09-19T23:41:31.453Z,12.72
2017-09-19T23:43:58.549Z,12.71
2017-09-19T23:46:24.784Z,12.77
2017-09-19T23:48:51.009Z,12.73
2017-09-19T23:51:17.406Z,12.77
2017-09-19T23:53:43.622Z,12.70
2017-09-19T23:56:10.586Z,12.70
2017-09-19T23:58:37.061Z,12.65
